sensor_id;sensor_type;location;lat;lon;timestamp;P1;durP1;ratioP1;P2;durP2;ratioP2
14584;SDS011;7379;51.506;11.876;2023-02-15T00:01:28;22.73;;;16.77;;
14584;SDS011;7379;51.506;11.876;2023-02-15T00:03:57;21.90;;;16.83;;
14584;SDS011;7379;51.506;11.876;2023-02-15T00:06:23;20.10;;;16.33;;
14584;SDS011;7379;51.506;11.876;2023-02-15T00:08:50;21.10;;;16.23;;
14584;SDS011;7379;51.506;11.876;2023-02-15T00:11:18;21.13;;;16.37;;
14584;SDS011;7379;51.506;11.876;2023-02-15T00:14:04;20.17;;;14.87;;
14584;SDS011;7379;51.506;11.876;2023-02-15T00:16:32;18.60;;;15.10;;
14584;SDS011;7379;51.506;11.876;2023-02-15T00:19:01;17.47;;;14.77;;
14584;SDS011;7379;51.506;11.876;2023-02-15T00:21:28;20.17;;;14.87;;
14584;SDS011;7379;51.506;11.876;2023-02-15T00:23:55;18.90;;;14.00;;
14584;SDS011;7379;51.506;11.876;2023-02-15T00:26:23;17.53;;;13.93;;
14584;SDS011;7379;51.506;11.876;2023-02-15T00:28:50;16.70;;;12.93;;
14584;SDS011;7379;51.506;11.876;2023-02-15T00:31:17;17.40;;;13.80;;
14584;SDS011;7379;51.506;11.876;2023-02-15T00:33:45;15.43;;;12.73;;
14584;SDS011;7379;51.506;11.876;2023-02-15T00:36:13;17.83;;;13.60;;
14584;SDS011;7379;51.506;11.876;2023-02-15T00:38:40;15.63;;;12.90;;
14584;SDS011;7379;51.506;11.876;2023-02-15T00:41:07;15.07;;;12.53;;
14584;SDS011;7379;51.506;11.876;2023-02-15T00:43:35;17.27;;;13.47;;
14584;SDS011;7379;51.506;11.876;2023-02-15T00:46:03;16.17;;;12.80;;
14584;SDS011;7379;51.506;11.876;2023-02-15T00:48:30;17.00;;;13.17;;
14584;SDS011;7379;51.506;11.876;2023-02-15T00:50:58;15.40;;;12.47;;
14584;SDS011;7379;51.506;11.876;2023-02-15T00:53:27;16.77;;;12.27;;
14584;SDS011;7379;51.506;11.876;2023-02-15T00:55:55;18.23;;;12.70;;
14584;SDS011;7379;51.506;11.876;2023-02-15T00:58:22;16.87;;;12.77;;
14584;SDS011;7379;51.506;11.876;2023-02-15T01:00:49;16.53;;;12.63;;
14584;SDS011;7379;51.506;11.876;2023-02-15T01:03:17;15.73;;;12.30;;
14584;SDS011;7379;51.506;11.876;2023-02-15T01:05:46;16.07;;;11.93;;
14584;SDS011;7379;51.506;11.876;2023-02-15T01:08:14;18.60;;;12.77;;
14584;SDS011;7379;51.506;11.876;2023-02-15T01:10:42;16.87;;;13.33;;
14584;SDS011;7379;51.506;11.876;2023-02-15T01:13:12;16.60;;;12.73;;
14584;SDS011;7379;51.506;11.876;2023-02-15T01:15:39;16.53;;;12.67;;
14584;SDS011;7379;51.506;11.876;2023-02-15T01:18:06;16.27;;;11.90;;
14584;SDS011;7379;51.506;11.876;2023-02-15T01:20:34;17.67;;;12.50;;
14584;SDS011;7379;51.506;11.876;2023-02-15T01:23:04;15.80;;;12.67;;
14584;SDS011;7379;51.506;11.876;2023-02-15T01:25:32;16.50;;;12.40;;
14584;SDS011;7379;51.506;11.876;2023-02-15T01:28:02;15.70;;;12.27;;
14584;SDS011;7379;51.506;11.876;2023-02-15T01:30:29;16.17;;;12.07;;
14584;SDS011;7379;51.506;11.876;2023-02-15T01:32:56;16.80;;;12.60;;
14584;SDS011;7379;51.506;11.876;2023-02-15T01:35:23;16.87;;;12.63;;
14584;SDS011;7379;51.506;11.876;2023-02-15T01:37:50;14.57;;;11.67;;
14584;SDS011;7379;51.506;11.876;2023-02-15T01:40:17;16.50;;;12.47;;
14584;SDS011;7379;51.506;11.876;2023-02-15T01:42:44;16.97;;;12.43;;
14584;SDS011;7379;51.506;11.876;2023-02-15T01:45:16;17.47;;;12.77;;
14584;SDS011;7379;51.506;11.876;2023-02-15T01:47:47;17.67;;;13.07;;
14584;SDS011;7379;51.506;11.876;2023-02-15T01:50:20;16.73;;;11.87;;
14584;SDS011;7379;51.506;11.876;2023-02-15T01:52:52;17.30;;;12.50;;
14584;SDS011;7379;51.506;11.876;2023-02-15T01:55:24;17.60;;;12.80;;
14584;SDS011;7379;51.506;11.876;2023-02-15T01:57:54;17.67;;;12.60;;
14584;SDS011;7379;51.506;11.876;2023-02-15T02:00:22;16.43;;;12.67;;
14584;SDS011;7379;51.506;11.876;2023-02-15T02:02:50;16.97;;;12.53;;
14584;SDS011;7379;51.506;11.876;2023-02-15T02:05:19;17.33;;;12.57;;
14584;SDS011;7379;51.506;11.876;2023-02-15T02:07:46;17.43;;;12.60;;
14584;SDS011;7379;51.506;11.876;2023-02-15T02:10:15;16.40;;;11.87;;
14584;SDS011;7379;51.506;11.876;2023-02-15T02:12:45;15.47;;;11.90;;
14584;SDS011;7379;51.506;11.876;2023-02-15T02:15:13;16.70;;;12.63;;
14584;SDS011;7379;51.506;11.876;2023-02-15T02:17:45;15.27;;;12.03;;
14584;SDS011;7379;51.506;11.876;2023-02-15T02:20:28;15.40;;;12.13;;
14584;SDS011;7379;51.506;11.876;2023-02-15T02:29:19;15.13;;;10.87;;
14584;SDS011;7379;51.506;11.876;2023-02-15T02:32:17;13.60;;;10.60;;
14584;SDS011;7379;51.506;11.876;2023-02-15T02:35:05;11.50;;;9.37;;
14584;SDS011;7379;51.506;11.876;2023-02-15T02:37:40;12.20;;;9.63;;
14584;SDS011;7379;51.506;11.876;2023-02-15T02:40:13;10.53;;;8.97;;
14584;SDS011;7379;51.506;11.876;2023-02-15T02:42:47;11.07;;;9.63;;
14584;SDS011;7379;51.506;11.876;2023-02-15T02:45:20;11.83;;;9.60;;
14584;SDS011;7379;51.506;11.876;2023-02-15T02:47:52;10.63;;;8.90;;
14584;SDS011;7379;51.506;11.876;2023-02-15T02:50:24;11.27;;;9.27;;
14584;SDS011;7379;51.506;11.876;2023-02-15T02:52:53;10.50;;;8.67;;
14584;SDS011;7379;51.506;11.876;2023-02-15T02:55:22;10.23;;;9.03;;
14584;SDS011;7379;51.506;11.876;2023-02-15T02:57:54;9.67;;;8.47;;
14584;SDS011;7379;51.506;11.876;2023-02-15T03:00:23;11.43;;;8.90;;
14584;SDS011;7379;51.506;11.876;2023-02-15T03:02:53;11.83;;;8.33;;
14584;SDS011;7379;51.506;11.876;2023-02-15T03:05:25;9.97;;;8.50;;
14584;SDS011;7379;51.506;11.876;2023-02-15T03:07:55;10.57;;;8.90;;
14584;SDS011;7379;51.506;11.876;2023-02-15T03:10:26;8.80;;;7.90;;
14584;SDS011;7379;51.506;11.876;2023-02-15T03:12:54;11.10;;;8.97;;
14584;SDS011;7379;51.506;11.876;2023-02-15T03:15:26;9.07;;;7.93;;
14584;SDS011;7379;51.506;11.876;2023-02-15T03:18:16;9.03;;;8.03;;
14584;SDS011;7379;51.506;11.876;2023-02-15T03:20:47;9.07;;;7.77;;
14584;SDS011;7379;51.506;11.876;2023-02-15T03:23:17;8.80;;;7.90;;
14584;SDS011;7379;51.506;11.876;2023-02-15T03:25:48;8.53;;;7.60;;
14584;SDS011;7379;51.506;11.876;2023-02-15T03:28:19;8.87;;;7.50;;
14584;SDS011;7379;51.506;11.876;2023-02-15T03:30:51;8.63;;;7.70;;
14584;SDS011;7379;51.506;11.876;2023-02-15T03:33:30;8.93;;;7.97;;
14584;SDS011;7379;51.506;11.876;2023-02-15T03:36:00;8.30;;;7.40;;
14584;SDS011;7379;51.506;11.876;2023-02-15T03:38:33;9.43;;;8.03;;
14584;SDS011;7379;51.506;11.876;2023-02-15T03:41:06;8.77;;;7.77;;
14584;SDS011;7379;51.506;11.876;2023-02-15T03:43:39;9.40;;;7.97;;
14584;SDS011;7379;51.506;11.876;2023-02-15T03:46:12;8.57;;;7.67;;
14584;SDS011;7379;51.506;11.876;2023-02-15T03:48:44;8.50;;;7.40;;
14584;SDS011;7379;51.506;11.876;2023-02-15T03:51:16;8.23;;;7.40;;
14584;SDS011;7379;51.506;11.876;2023-02-15T03:53:59;8.03;;;7.23;;
14584;SDS011;7379;51.506;11.876;2023-02-15T03:56:29;7.90;;;7.10;;
14584;SDS011;7379;51.506;11.876;2023-02-15T03:58:56;7.97;;;7.17;;
14584;SDS011;7379;51.506;11.876;2023-02-15T04:01:40;7.97;;;7.17;;
14584;SDS011;7379;51.506;11.876;2023-02-15T04:04:30;7.97;;;7.13;;
14584;SDS011;7379;51.506;11.876;2023-02-15T04:07:03;7.00;;;6.30;;
14584;SDS011;7379;51.506;11.876;2023-02-15T04:09:31;7.73;;;6.93;;
14584;SDS011;7379;51.506;11.876;2023-02-15T04:12:15;6.63;;;6.03;;
14584;SDS011;7379;51.506;11.876;2023-02-15T04:14:42;7.40;;;6.70;;
14584;SDS011;7379;51.506;11.876;2023-02-15T04:17:26;8.47;;;6.67;;
14584;SDS011;7379;51.506;11.876;2023-02-15T04:19:53;7.43;;;6.73;;
14584;SDS011;7379;51.506;11.876;2023-02-15T04:22:39;7.53;;;6.77;;
14584;SDS011;7379;51.506;11.876;2023-02-15T04:25:23;7.90;;;7.10;;
14584;SDS011;7379;51.506;11.876;2023-02-15T04:27:51;8.00;;;7.10;;
14584;SDS011;7379;51.506;11.876;2023-02-15T04:30:20;7.50;;;6.70;;
14584;SDS011;7379;51.506;11.876;2023-02-15T04:32:48;7.27;;;6.47;;
14584;SDS011;7379;51.506;11.876;2023-02-15T04:35:15;7.77;;;6.97;;
14584;SDS011;7379;51.506;11.876;2023-02-15T04:37:43;7.00;;;6.33;;
14584;SDS011;7379;51.506;11.876;2023-02-15T04:40:11;7.63;;;6.73;;
14584;SDS011;7379;51.506;11.876;2023-02-15T04:42:39;7.07;;;6.37;;
14584;SDS011;7379;51.506;11.876;2023-02-15T04:45:07;6.90;;;6.20;;
14584;SDS011;7379;51.506;11.876;2023-02-15T04:47:34;6.83;;;6.13;;
14584;SDS011;7379;51.506;11.876;2023-02-15T04:50:01;7.00;;;6.30;;
14584;SDS011;7379;51.506;11.876;2023-02-15T04:52:28;6.93;;;6.23;;
14584;SDS011;7379;51.506;11.876;2023-02-15T04:54:56;6.63;;;5.93;;
14584;SDS011;7379;51.506;11.876;2023-02-15T04:57:22;6.57;;;5.97;;
14584;SDS011;7379;51.506;11.876;2023-02-15T04:59:49;6.60;;;5.90;;
14584;SDS011;7379;51.506;11.876;2023-02-15T05:02:16;6.73;;;6.03;;
14584;SDS011;7379;51.506;11.876;2023-02-15T05:04:43;6.37;;;5.77;;
14584;SDS011;7379;51.506;11.876;2023-02-15T05:07:10;6.83;;;6.13;;
14584;SDS011;7379;51.506;11.876;2023-02-15T05:09:36;6.37;;;5.77;;
14584;SDS011;7379;51.506;11.876;2023-02-15T05:12:05;6.30;;;5.70;;
14584;SDS011;7379;51.506;11.876;2023-02-15T05:14:32;6.10;;;5.50;;
14584;SDS011;7379;51.506;11.876;2023-02-15T05:16:59;6.53;;;5.83;;
14584;SDS011;7379;51.506;11.876;2023-02-15T05:19:26;6.20;;;5.60;;
14584;SDS011;7379;51.506;11.876;2023-02-15T05:21:53;6.17;;;5.57;;
14584;SDS011;7379;51.506;11.876;2023-02-15T05:24:20;6.77;;;6.07;;
14584;SDS011;7379;51.506;11.876;2023-02-15T05:27:06;5.93;;;5.40;;
14584;SDS011;7379;51.506;11.876;2023-02-15T05:29:51;6.23;;;5.63;;
14584;SDS011;7379;51.506;11.876;2023-02-15T05:32:18;6.40;;;5.80;;
14584;SDS011;7379;51.506;11.876;2023-02-15T05:34:45;6.70;;;6.10;;
14584;SDS011;7379;51.506;11.876;2023-02-15T05:37:12;6.10;;;5.50;;
14584;SDS011;7379;51.506;11.876;2023-02-15T05:39:38;6.43;;;5.80;;
14584;SDS011;7379;51.506;11.876;2023-02-15T05:42:06;6.67;;;5.97;;
14584;SDS011;7379;51.506;11.876;2023-02-15T05:44:33;6.30;;;5.70;;
14584;SDS011;7379;51.506;11.876;2023-02-15T05:47:00;6.17;;;5.57;;
14584;SDS011;7379;51.506;11.876;2023-02-15T05:49:28;6.17;;;5.57;;
14584;SDS011;7379;51.506;11.876;2023-02-15T05:51:55;6.77;;;6.07;;
14584;SDS011;7379;51.506;11.876;2023-02-15T05:54:22;6.40;;;5.80;;
14584;SDS011;7379;51.506;11.876;2023-02-15T05:56:49;6.30;;;5.70;;
14584;SDS011;7379;51.506;11.876;2023-02-15T05:59:17;6.50;;;5.77;;
14584;SDS011;7379;51.506;11.876;2023-02-15T06:01:44;6.50;;;5.90;;
14584;SDS011;7379;51.506;11.876;2023-02-15T06:04:10;6.47;;;5.80;;
14584;SDS011;7379;51.506;11.876;2023-02-15T06:06:38;6.47;;;5.87;;
14584;SDS011;7379;51.506;11.876;2023-02-15T06:09:05;6.40;;;5.80;;
14584;SDS011;7379;51.506;11.876;2023-02-15T06:11:32;6.00;;;5.40;;
14584;SDS011;7379;51.506;11.876;2023-02-15T06:13:58;6.73;;;6.13;;
14584;SDS011;7379;51.506;11.876;2023-02-15T06:16:27;6.13;;;5.53;;
14584;SDS011;7379;51.506;11.876;2023-02-15T06:18:53;7.00;;;6.30;;
14584;SDS011;7379;51.506;11.876;2023-02-15T06:21:20;7.03;;;6.33;;
14584;SDS011;7379;51.506;11.876;2023-02-15T06:23:47;6.70;;;6.00;;
14584;SDS011;7379;51.506;11.876;2023-02-15T06:26:14;6.70;;;6.00;;
14584;SDS011;7379;51.506;11.876;2023-02-15T06:28:40;6.50;;;5.90;;
14584;SDS011;7379;51.506;11.876;2023-02-15T06:31:07;6.67;;;5.97;;
14584;SDS011;7379;51.506;11.876;2023-02-15T06:33:35;6.93;;;6.23;;
14584;SDS011;7379;51.506;11.876;2023-02-15T06:36:03;6.77;;;6.07;;
14584;SDS011;7379;51.506;11.876;2023-02-15T06:38:30;6.30;;;5.70;;
14584;SDS011;7379;51.506;11.876;2023-02-15T06:40:57;6.67;;;5.97;;
14584;SDS011;7379;51.506;11.876;2023-02-15T06:43:23;6.97;;;6.23;;
14584;SDS011;7379;51.506;11.876;2023-02-15T06:45:50;6.03;;;5.43;;
14584;SDS011;7379;51.506;11.876;2023-02-15T06:48:17;6.73;;;6.03;;
14584;SDS011;7379;51.506;11.876;2023-02-15T06:50:45;6.57;;;5.97;;
14584;SDS011;7379;51.506;11.876;2023-02-15T06:53:12;6.23;;;5.63;;
14584;SDS011;7379;51.506;11.876;2023-02-15T06:55:39;6.87;;;6.17;;
14584;SDS011;7379;51.506;11.876;2023-02-15T06:58:06;6.50;;;5.90;;
14584;SDS011;7379;51.506;11.876;2023-02-15T07:00:33;6.60;;;5.87;;
14584;SDS011;7379;51.506;11.876;2023-02-15T07:02:59;6.40;;;5.80;;
14584;SDS011;7379;51.506;11.876;2023-02-15T07:05:27;6.47;;;5.87;;
14584;SDS011;7379;51.506;11.876;2023-02-15T07:07:57;6.50;;;5.90;;
14584;SDS011;7379;51.506;11.876;2023-02-15T07:10:24;6.63;;;6.00;;
14584;SDS011;7379;51.506;11.876;2023-02-15T07:12:51;6.20;;;5.60;;
14584;SDS011;7379;51.506;11.876;2023-02-15T07:15:17;6.47;;;5.87;;
14584;SDS011;7379;51.506;11.876;2023-02-15T07:17:46;6.77;;;5.77;;
14584;SDS011;7379;51.506;11.876;2023-02-15T07:20:14;6.53;;;5.83;;
14584;SDS011;7379;51.506;11.876;2023-02-15T07:22:42;6.90;;;6.20;;
14584;SDS011;7379;51.506;11.876;2023-02-15T07:25:10;6.27;;;5.67;;
14584;SDS011;7379;51.506;11.876;2023-02-15T07:27:38;6.33;;;5.73;;
14584;SDS011;7379;51.506;11.876;2023-02-15T07:30:06;7.10;;;6.40;;
14584;SDS011;7379;51.506;11.876;2023-02-15T07:32:34;6.27;;;5.67;;
14584;SDS011;7379;51.506;11.876;2023-02-15T07:35:01;6.70;;;6.00;;
14584;SDS011;7379;51.506;11.876;2023-02-15T07:37:28;6.70;;;6.00;;
14584;SDS011;7379;51.506;11.876;2023-02-15T07:39:55;6.40;;;5.70;;
14584;SDS011;7379;51.506;11.876;2023-02-15T07:42:23;6.50;;;5.90;;
14584;SDS011;7379;51.506;11.876;2023-02-15T07:44:50;6.43;;;5.83;;
14584;SDS011;7379;51.506;11.876;2023-02-15T07:47:17;6.00;;;5.40;;
14584;SDS011;7379;51.506;11.876;2023-02-15T07:49:44;6.83;;;5.67;;
14584;SDS011;7379;51.506;11.876;2023-02-15T07:52:11;6.53;;;5.93;;
14584;SDS011;7379;51.506;11.876;2023-02-15T07:54:37;6.40;;;5.80;;
14584;SDS011;7379;51.506;11.876;2023-02-15T07:57:04;5.60;;;5.10;;
14584;SDS011;7379;51.506;11.876;2023-02-15T07:59:32;6.80;;;6.10;;
14584;SDS011;7379;51.506;11.876;2023-02-15T08:01:59;5.90;;;5.40;;
14584;SDS011;7379;51.506;11.876;2023-02-15T08:04:26;6.20;;;5.60;;
14584;SDS011;7379;51.506;11.876;2023-02-15T08:06:53;6.40;;;5.80;;
14584;SDS011;7379;51.506;11.876;2023-02-15T08:09:20;6.40;;;5.80;;
14584;SDS011;7379;51.506;11.876;2023-02-15T08:11:47;6.20;;;5.60;;
14584;SDS011;7379;51.506;11.876;2023-02-15T08:14:15;6.60;;;5.97;;
14584;SDS011;7379;51.506;11.876;2023-02-15T08:16:44;6.10;;;5.50;;
14584;SDS011;7379;51.506;11.876;2023-02-15T08:19:13;6.47;;;5.87;;
14584;SDS011;7379;51.506;11.876;2023-02-15T08:21:41;6.40;;;5.70;;
14584;SDS011;7379;51.506;11.876;2023-02-15T08:24:10;6.37;;;5.77;;
14584;SDS011;7379;51.506;11.876;2023-02-15T08:26:38;6.37;;;5.77;;
14584;SDS011;7379;51.506;11.876;2023-02-15T08:29:06;6.73;;;5.67;;
14584;SDS011;7379;51.506;11.876;2023-02-15T08:31:34;6.67;;;6.00;;
14584;SDS011;7379;51.506;11.876;2023-02-15T08:34:03;6.40;;;5.80;;
14584;SDS011;7379;51.506;11.876;2023-02-15T08:36:31;6.80;;;6.10;;
14584;SDS011;7379;51.506;11.876;2023-02-15T08:38:59;6.23;;;5.63;;
14584;SDS011;7379;51.506;11.876;2023-02-15T08:41:27;6.67;;;5.93;;
14584;SDS011;7379;51.506;11.876;2023-02-15T08:43:56;6.87;;;6.10;;
14584;SDS011;7379;51.506;11.876;2023-02-15T08:46:24;7.23;;;6.50;;
14584;SDS011;7379;51.506;11.876;2023-02-15T08:48:52;7.10;;;6.40;;
14584;SDS011;7379;51.506;11.876;2023-02-15T08:51:21;7.27;;;6.57;;
14584;SDS011;7379;51.506;11.876;2023-02-15T08:53:49;7.33;;;6.53;;
14584;SDS011;7379;51.506;11.876;2023-02-15T08:56:18;6.53;;;5.93;;
14584;SDS011;7379;51.506;11.876;2023-02-15T08:58:46;7.67;;;6.47;;
14584;SDS011;7379;51.506;11.876;2023-02-15T09:01:14;6.73;;;6.03;;
14584;SDS011;7379;51.506;11.876;2023-02-15T09:03:43;7.50;;;6.70;;
14584;SDS011;7379;51.506;11.876;2023-02-15T09:06:10;7.00;;;6.30;;
14584;SDS011;7379;51.506;11.876;2023-02-15T09:08:38;7.53;;;6.03;;
14584;SDS011;7379;51.506;11.876;2023-02-15T09:11:06;7.00;;;6.30;;
14584;SDS011;7379;51.506;11.876;2023-02-15T09:13:34;7.93;;;7.10;;
14584;SDS011;7379;51.506;11.876;2023-02-15T09:16:01;7.30;;;6.60;;
14584;SDS011;7379;51.506;11.876;2023-02-15T09:18:29;6.67;;;5.97;;
14584;SDS011;7379;51.506;11.876;2023-02-15T09:21:03;7.67;;;6.87;;
14584;SDS011;7379;51.506;11.876;2023-02-15T09:23:30;7.47;;;6.60;;
14584;SDS011;7379;51.506;11.876;2023-02-15T09:26:02;7.83;;;6.70;;
14584;SDS011;7379;51.506;11.876;2023-02-15T09:28:30;7.43;;;6.60;;
14584;SDS011;7379;51.506;11.876;2023-02-15T09:31:03;7.80;;;7.00;;
14584;SDS011;7379;51.506;11.876;2023-02-15T09:33:35;8.03;;;7.03;;
14584;SDS011;7379;51.506;11.876;2023-02-15T09:36:02;7.17;;;6.47;;
14584;SDS011;7379;51.506;11.876;2023-02-15T09:38:29;7.27;;;6.47;;
14584;SDS011;7379;51.506;11.876;2023-02-15T09:40:59;7.60;;;6.73;;
14584;SDS011;7379;51.506;11.876;2023-02-15T09:43:39;8.57;;;6.40;;
14584;SDS011;7379;51.506;11.876;2023-02-15T09:46:15;7.47;;;6.67;;
14584;SDS011;7379;51.506;11.876;2023-02-15T09:49:07;7.83;;;6.90;;
14584;SDS011;7379;51.506;11.876;2023-02-15T09:51:48;8.43;;;7.30;;
14584;SDS011;7379;51.506;11.876;2023-02-15T09:54:33;6.83;;;6.13;;
14584;SDS011;7379;51.506;11.876;2023-02-15T09:57:15;8.57;;;7.07;;
14584;SDS011;7379;51.506;11.876;2023-02-15T09:59:51;7.03;;;6.33;;
14584;SDS011;7379;51.506;11.876;2023-02-15T10:02:32;8.23;;;7.03;;
14584;SDS011;7379;51.506;11.876;2023-02-15T10:05:14;8.67;;;7.20;;
14584;SDS011;7379;51.506;11.876;2023-02-15T10:08:05;7.93;;;6.80;;
14584;SDS011;7379;51.506;11.876;2023-02-15T10:10:48;8.13;;;7.27;;
14584;SDS011;7379;51.506;11.876;2023-02-15T10:13:24;8.10;;;7.30;;
14584;SDS011;7379;51.506;11.876;2023-02-15T10:16:03;9.90;;;7.70;;
14584;SDS011;7379;51.506;11.876;2023-02-15T10:18:42;9.73;;;7.80;;
14584;SDS011;7379;51.506;11.876;2023-02-15T10:21:22;7.70;;;6.93;;
14584;SDS011;7379;51.506;11.876;2023-02-15T10:26:58;8.70;;;7.33;;
14584;SDS011;7379;51.506;11.876;2023-02-15T10:29:32;8.67;;;7.57;;
14584;SDS011;7379;51.506;11.876;2023-02-15T10:32:05;9.43;;;8.00;;
14584;SDS011;7379;51.506;11.876;2023-02-15T10:34:48;9.30;;;8.13;;
14584;SDS011;7379;51.506;11.876;2023-02-15T10:37:31;8.90;;;7.73;;
14584;SDS011;7379;51.506;11.876;2023-02-15T10:40:08;9.17;;;7.80;;
14584;SDS011;7379;51.506;11.876;2023-02-15T10:42:47;9.20;;;7.93;;
14584;SDS011;7379;51.506;11.876;2023-02-15T10:45:26;8.10;;;7.30;;
14584;SDS011;7379;51.506;11.876;2023-02-15T10:48:11;9.50;;;8.10;;
14584;SDS011;7379;51.506;11.876;2023-02-15T10:50:49;10.10;;;8.53;;
14584;SDS011;7379;51.506;11.876;2023-02-15T10:56:12;9.37;;;7.97;;
14584;SDS011;7379;51.506;11.876;2023-02-15T10:58:51;9.47;;;8.03;;
14584;SDS011;7379;51.506;11.876;2023-02-15T11:01:35;8.97;;;8.00;;
14584;SDS011;7379;51.506;11.876;2023-02-15T11:04:23;10.20;;;8.07;;
14584;SDS011;7379;51.506;11.876;2023-02-15T11:07:06;9.83;;;8.37;;
14584;SDS011;7379;51.506;11.876;2023-02-15T11:09:41;10.27;;;8.50;;
14584;SDS011;7379;51.506;11.876;2023-02-15T11:12:11;10.30;;;8.83;;
14584;SDS011;7379;51.506;11.876;2023-02-15T11:14:43;10.27;;;9.10;;
14584;SDS011;7379;51.506;11.876;2023-02-15T11:17:16;10.07;;;8.33;;
14584;SDS011;7379;51.506;11.876;2023-02-15T11:19:47;10.47;;;8.40;;
14584;SDS011;7379;51.506;11.876;2023-02-15T11:22:21;10.23;;;8.57;;
14584;SDS011;7379;51.506;11.876;2023-02-15T11:24:48;9.67;;;8.17;;
14584;SDS011;7379;51.506;11.876;2023-02-15T11:27:17;10.50;;;8.20;;
14584;SDS011;7379;51.506;11.876;2023-02-15T11:29:48;9.17;;;8.17;;
14584;SDS011;7379;51.506;11.876;2023-02-15T11:32:22;9.60;;;8.60;;
14584;SDS011;7379;51.506;11.876;2023-02-15T11:34:53;9.83;;;8.60;;
14584;SDS011;7379;51.506;11.876;2023-02-15T11:37:23;10.67;;;7.83;;
14584;SDS011;7379;51.506;11.876;2023-02-15T11:39:57;8.77;;;7.70;;
14584;SDS011;7379;51.506;11.876;2023-02-15T11:42:25;9.10;;;8.20;;
14584;SDS011;7379;51.506;11.876;2023-02-15T11:44:56;8.90;;;8.00;;
14584;SDS011;7379;51.506;11.876;2023-02-15T11:47:28;9.60;;;8.10;;
14584;SDS011;7379;51.506;11.876;2023-02-15T11:49:55;8.90;;;7.73;;
14584;SDS011;7379;51.506;11.876;2023-02-15T11:52:22;10.63;;;8.17;;
14584;SDS011;7379;51.506;11.876;2023-02-15T11:54:50;9.13;;;8.00;;
14584;SDS011;7379;51.506;11.876;2023-02-15T11:57:19;10.37;;;8.13;;
14584;SDS011;7379;51.506;11.876;2023-02-15T11:59:52;9.67;;;8.00;;
14584;SDS011;7379;51.506;11.876;2023-02-15T12:02:24;8.97;;;7.63;;
14584;SDS011;7379;51.506;11.876;2023-02-15T12:04:54;8.47;;;7.20;;
14584;SDS011;7379;51.506;11.876;2023-02-15T12:07:24;9.20;;;7.87;;
14584;SDS011;7379;51.506;11.876;2023-02-15T12:09:56;8.77;;;7.83;;
14584;SDS011;7379;51.506;11.876;2023-02-15T12:12:29;9.40;;;7.97;;
14584;SDS011;7379;51.506;11.876;2023-02-15T12:14:57;10.13;;;7.50;;
14584;SDS011;7379;51.506;11.876;2023-02-15T12:17:26;9.27;;;7.83;;
14584;SDS011;7379;51.506;11.876;2023-02-15T12:19:56;9.83;;;8.13;;
14584;SDS011;7379;51.506;11.876;2023-02-15T12:22:26;9.47;;;8.13;;
14584;SDS011;7379;51.506;11.876;2023-02-15T12:24:55;10.67;;;8.77;;
14584;SDS011;7379;51.506;11.876;2023-02-15T12:27:25;8.97;;;7.97;;
14584;SDS011;7379;51.506;11.876;2023-02-15T12:29:56;9.83;;;8.50;;
14584;SDS011;7379;51.506;11.876;2023-02-15T12:32:26;8.93;;;8.00;;
14584;SDS011;7379;51.506;11.876;2023-02-15T12:35:00;9.47;;;8.20;;
14584;SDS011;7379;51.506;11.876;2023-02-15T12:37:33;9.40;;;8.37;;
14584;SDS011;7379;51.506;11.876;2023-02-15T12:40:04;11.17;;;7.83;;
14584;SDS011;7379;51.506;11.876;2023-02-15T12:42:45;9.83;;;8.33;;
14584;SDS011;7379;51.506;11.876;2023-02-15T12:45:23;10.17;;;8.50;;
14584;SDS011;7379;51.506;11.876;2023-02-15T12:50:36;10.53;;;7.90;;
14584;SDS011;7379;51.506;11.876;2023-02-15T12:53:06;10.10;;;8.17;;
14584;SDS011;7379;51.506;11.876;2023-02-15T12:55:41;10.97;;;8.30;;
14584;SDS011;7379;51.506;11.876;2023-02-15T12:58:17;9.60;;;8.07;;
14584;SDS011;7379;51.506;11.876;2023-02-15T13:00:45;9.23;;;7.63;;
14584;SDS011;7379;51.506;11.876;2023-02-15T13:03:16;9.40;;;7.77;;
14584;SDS011;7379;51.506;11.876;2023-02-15T13:05:46;9.93;;;8.10;;
14584;SDS011;7379;51.506;11.876;2023-02-15T13:08:17;8.87;;;7.97;;
14584;SDS011;7379;51.506;11.876;2023-02-15T13:10:52;10.37;;;8.63;;
14584;SDS011;7379;51.506;11.876;2023-02-15T13:13:22;10.57;;;8.40;;
14584;SDS011;7379;51.506;11.876;2023-02-15T13:15:52;10.60;;;8.57;;
14584;SDS011;7379;51.506;11.876;2023-02-15T13:18:25;9.60;;;8.30;;
14584;SDS011;7379;51.506;11.876;2023-02-15T13:20:57;10.07;;;8.23;;
14584;SDS011;7379;51.506;11.876;2023-02-15T13:23:30;9.47;;;8.07;;
14584;SDS011;7379;51.506;11.876;2023-02-15T13:25:58;9.43;;;8.07;;
14584;SDS011;7379;51.506;11.876;2023-02-15T13:28:31;9.57;;;8.20;;
14584;SDS011;7379;51.506;11.876;2023-02-15T13:31:07;9.90;;;8.20;;
14584;SDS011;7379;51.506;11.876;2023-02-15T13:33:40;8.97;;;8.03;;
14584;SDS011;7379;51.506;11.876;2023-02-15T13:36:13;9.33;;;8.07;;
14584;SDS011;7379;51.506;11.876;2023-02-15T13:38:49;10.07;;;8.83;;
14584;SDS011;7379;51.506;11.876;2023-02-15T13:41:25;10.13;;;8.23;;
14584;SDS011;7379;51.506;11.876;2023-02-15T13:43:59;10.00;;;8.63;;
14584;SDS011;7379;51.506;11.876;2023-02-15T13:46:45;8.93;;;7.97;;
14584;SDS011;7379;51.506;11.876;2023-02-15T13:49:27;9.33;;;8.33;;
14584;SDS011;7379;51.506;11.876;2023-02-15T13:52:11;9.67;;;8.20;;
14584;SDS011;7379;51.506;11.876;2023-02-15T13:54:47;10.07;;;8.43;;
14584;SDS011;7379;51.506;11.876;2023-02-15T13:57:36;10.10;;;8.20;;
14584;SDS011;7379;51.506;11.876;2023-02-15T14:00:25;8.57;;;7.30;;
14584;SDS011;7379;51.506;11.876;2023-02-15T14:05:54;9.83;;;8.00;;
14584;SDS011;7379;51.506;11.876;2023-02-15T14:08:42;9.33;;;8.07;;
14584;SDS011;7379;51.506;11.876;2023-02-15T14:11:21;8.93;;;7.90;;
14584;SDS011;7379;51.506;11.876;2023-02-15T14:13:56;8.77;;;7.87;;
14584;SDS011;7379;51.506;11.876;2023-02-15T14:16:40;9.10;;;7.53;;
14584;SDS011;7379;51.506;11.876;2023-02-15T14:19:16;8.13;;;7.33;;
14584;SDS011;7379;51.506;11.876;2023-02-15T14:21:50;9.33;;;8.17;;
14584;SDS011;7379;51.506;11.876;2023-02-15T14:24:29;9.57;;;7.53;;
14584;SDS011;7379;51.506;11.876;2023-02-15T14:27:02;10.73;;;8.10;;
14584;SDS011;7379;51.506;11.876;2023-02-15T14:29:41;9.00;;;7.20;;
14584;SDS011;7379;51.506;11.876;2023-02-15T14:32:15;8.60;;;7.70;;
14584;SDS011;7379;51.506;11.876;2023-02-15T14:34:48;8.50;;;7.60;;
14584;SDS011;7379;51.506;11.876;2023-02-15T14:37:19;9.57;;;7.67;;
14584;SDS011;7379;51.506;11.876;2023-02-15T14:39:54;9.90;;;7.17;;
14584;SDS011;7379;51.506;11.876;2023-02-15T14:42:43;8.40;;;7.13;;
14584;SDS011;7379;51.506;11.876;2023-02-15T14:45:18;8.53;;;7.50;;
14584;SDS011;7379;51.506;11.876;2023-02-15T14:47:51;7.77;;;6.97;;
14584;SDS011;7379;51.506;11.876;2023-02-15T14:50:39;8.93;;;7.47;;
14584;SDS011;7379;51.506;11.876;2023-02-15T14:53:22;8.17;;;7.03;;
14584;SDS011;7379;51.506;11.876;2023-02-15T14:56:15;9.20;;;7.43;;
14584;SDS011;7379;51.506;11.876;2023-02-15T15:01:52;7.90;;;6.70;;
14584;SDS011;7379;51.506;11.876;2023-02-15T15:04:24;8.13;;;7.23;;
14584;SDS011;7379;51.506;11.876;2023-02-15T15:07:00;7.93;;;7.13;;
14584;SDS011;7379;51.506;11.876;2023-02-15T15:09:35;7.87;;;6.90;;
14584;SDS011;7379;51.506;11.876;2023-02-15T15:12:15;8.20;;;6.47;;
14584;SDS011;7379;51.506;11.876;2023-02-15T15:15:03;8.67;;;7.23;;
14584;SDS011;7379;51.506;11.876;2023-02-15T15:20:40;8.07;;;7.00;;
14584;SDS011;7379;51.506;11.876;2023-02-15T15:26:20;8.43;;;7.53;;
14584;SDS011;7379;51.506;11.876;2023-02-15T15:29:03;8.93;;;7.97;;
14584;SDS011;7379;51.506;11.876;2023-02-15T15:31:32;8.47;;;7.30;;
14584;SDS011;7379;51.506;11.876;2023-02-15T15:34:11;10.00;;;8.10;;